Time;durP1;ratioP1;P1;durP2;ratioP2;P2;SDS_P1;SDS_P2;PMS_P1;PMS_P2;Temp;Humidity;BMP_temperature;BMP_pressure;BME280_temperature;BME280_humidity;BME280_pressure;Samples;Min_cycle;Max_cycle;Signal;HPM_P1;HPM_P2
2021/05/31 00:02:13;;;;;;;518.22;367.95;;;;;;;;;;4982967;28;20348;-79
2021/05/31 00:04:39;;;;;;;506.50;351.65;;;;;;;;;;5003660;28;20045;-77
2021/05/31 00:07:08;;;;;;;506.48;352.05;;;;;;;;;;4985604;28;20030;-79
2021/05/31 00:09:35;;;;;;;512.95;357.27;;;;;;;;;;4981779;28;20103;-79
2021/05/31 00:12:02;;;;;;;519.33;365.05;;;;;;;;;;4998147;28;20041;-78
2021/05/31 00:14:28;;;;;;;513.05;350.00;;;;;;;;;;4987857;28;20103;-79
2021/05/31 00:16:54;;;;;;;515.03;355.98;;;;;;;;;;4983502;28;20023;-80
2021/05/31 00:19:21;;;;;;;517.63;366.15;;;;;;;;;;4985840;28;20042;-78
2021/05/31 00:21:48;;;;;;;516.83;362.17;;;;;;;;;;4983296;28;20022;-77
2021/05/31 00:24:14;;;;;;;517.63;366.40;;;;;;;;;;4985274;28;20026;-78
2021/05/31 00:26:40;;;;;;;546.88;383.08;;;;;;;;;;4979747;28;20060;-78
2021/05/31 00:29:06;;;;;;;553.17;388.30;;;;;;;;;;4984053;28;20056;-78
2021/05/31 00:31:33;;;;;;;525.33;361.75;;;;;;;;;;4982123;28;20173;-78
2021/05/31 00:33:59;;;;;;;517.72;360.30;;;;;;;;;;4986100;28;20050;-78
2021/05/31 00:36:25;;;;;;;529.85;372.52;;;;;;;;;;4981762;28;20022;-78
2021/05/31 00:38:51;;;;;;;526.58;365.58;;;;;;;;;;4986284;28;20043;-79
2021/05/31 00:41:17;;;;;;;531.92;365.45;;;;;;;;;;4987034;28;20026;-78
2021/05/31 00:43:43;;;;;;;542.47;368.15;;;;;;;;;;4983875;28;20087;-79
2021/05/31 00:46:10;;;;;;;531.35;357.17;;;;;;;;;;4983465;28;20038;-79
2021/05/31 00:48:39;;;;;;;519.78;352.60;;;;;;;;;;4982402;28;20022;-79
2021/05/31 00:51:07;;;;;;;510.92;347.48;;;;;;;;;;4983467;28;20026;-77
2021/05/31 00:53:34;;;;;;;507.25;344.33;;;;;;;;;;4980179;28;20034;-77
2021/05/31 00:55:59;;;;;;;506.45;346.08;;;;;;;;;;4990422;28;20018;-79
2021/05/31 00:58:27;;;;;;;504.08;343.88;;;;;;;;;;4986021;28;20167;-77
2021/05/31 01:00:54;;;;;;;503.52;337.80;;;;;;;;;;4981524;28;20336;-79
2021/05/31 01:03:20;;;;;;;505.50;344.98;;;;;;;;;;4984458;28;20088;-78
2021/05/31 01:05:47;;;;;;;504.17;338.05;;;;;;;;;;4985819;28;20022;-79
2021/05/31 01:08:16;;;;;;;505.85;341.38;;;;;;;;;;4983255;28;20025;-78
2021/05/31 01:10:50;;;;;;;525.90;347.35;;;;;;;;;;4983539;28;20129;-80
2021/05/31 01:13:19;;;;;;;521.03;347.30;;;;;;;;;;4981937;28;20041;-78
2021/05/31 01:15:52;;;;;;;518.90;342.02;;;;;;;;;;4979402;28;20369;-78
2021/05/31 01:18:27;;;;;;;524.63;344.73;;;;;;;;;;4978287;28;20037;-79
2021/05/31 01:21:12;;;;;;;527.53;346.52;;;;;;;;;;4976515;28;20030;-79
2021/05/31 01:23:39;;;;;;;514.20;338.25;;;;;;;;;;4979140;28;20038;-79
2021/05/31 01:26:11;;;;;;;509.13;336.70;;;;;;;;;;4984334;28;20027;-78
2021/05/31 01:28:55;;;;;;;535.15;362.20;;;;;;;;;;4984994;28;20341;-80
2021/05/31 01:31:37;;;;;;;530.90;347.45;;;;;;;;;;4980403;28;20482;-78
2021/05/31 01:34:05;;;;;;;540.70;343.02;;;;;;;;;;4980911;28;20122;-79
2021/05/31 01:36:32;;;;;;;548.53;359.60;;;;;;;;;;4982590;28;20023;-78
2021/05/31 01:38:59;;;;;;;567.88;372.67;;;;;;;;;;4980568;28;20018;-78
2021/05/31 01:41:25;;;;;;;569.38;370.70;;;;;;;;;;4983669;28;20356;-78
2021/05/31 01:43:51;;;;;;;566.30;380.33;;;;;;;;;;4985273;28;20038;-77
2021/05/31 01:46:18;;;;;;;630.55;419.13;;;;;;;;;;4981387;28;20031;-78
2021/05/31 01:48:45;;;;;;;535.63;347.83;;;;;;;;;;4981829;28;20105;-78
2021/05/31 01:51:11;;;;;;;590.22;390.50;;;;;;;;;;4982716;28;20031;-77
2021/05/31 01:53:38;;;;;;;551.88;361.92;;;;;;;;;;4979676;28;20121;-78
2021/05/31 01:56:04;;;;;;;540.17;349.40;;;;;;;;;;4985235;28;20026;-77
2021/05/31 01:58:30;;;;;;;551.03;361.10;;;;;;;;;;4983973;28;20444;-77
2021/05/31 02:00:57;;;;;;;537.80;350.52;;;;;;;;;;4979834;28;20022;-78
2021/05/31 02:03:23;;;;;;;556.00;360.98;;;;;;;;;;4983134;28;20160;-79
2021/05/31 02:05:49;;;;;;;574.20;377.40;;;;;;;;;;4982182;28;20439;-79
2021/05/31 02:08:15;;;;;;;560.45;367.40;;;;;;;;;;4979321;28;20470;-77
2021/05/31 02:10:41;;;;;;;552.08;352.90;;;;;;;;;;4985455;28;20041;-78
2021/05/31 02:13:12;;;;;;;561.10;369.77;;;;;;;;;;4980683;28;20018;-79
2021/05/31 02:15:53;;;;;;;563.38;359.02;;;;;;;;;;4943811;28;1083469;-77
2021/05/31 02:18:24;;;;;;;583.05;372.38;;;;;;;;;;4982797;28;20031;-79
2021/05/31 02:20:52;;;;;;;606.33;391.88;;;;;;;;;;4978620;28;20026;-78
2021/05/31 02:23:20;;;;;;;608.47;386.98;;;;;;;;;;4982394;28;20041;-78
2021/05/31 02:25:48;;;;;;;599.58;390.60;;;;;;;;;;4978985;28;20038;-78
2021/05/31 02:28:14;;;;;;;683.58;446.83;;;;;;;;;;4984416;28;20019;-79
2021/05/31 02:30:40;;;;;;;574.95;365.20;;;;;;;;;;4984584;28;20083;-78
2021/05/31 02:33:06;;;;;;;664.60;439.23;;;;;;;;;;4979087;28;20035;-78
2021/05/31 02:35:33;;;;;;;573.38;365.45;;;;;;;;;;4975675;28;20433;-77
2021/05/31 02:38:01;;;;;;;550.38;360.08;;;;;;;;;;4978441;28;20608;-79
2021/05/31 02:40:27;;;;;;;587.30;371.75;;;;;;;;;;4980802;28;20019;-78
2021/05/31 02:42:55;;;;;;;534.60;352.23;;;;;;;;;;4979390;28;20079;-79
2021/05/31 02:45:23;;;;;;;529.70;339.65;;;;;;;;;;4982994;28;20042;-76
2021/05/31 02:47:49;;;;;;;538.42;353.13;;;;;;;;;;4981971;28;20026;-77
2021/05/31 02:50:15;;;;;;;553.00;360.33;;;;;;;;;;4979302;28;20022;-76
2021/05/31 02:52:42;;;;;;;530.58;342.92;;;;;;;;;;4982950;28;20084;-76
2021/05/31 02:55:19;;;;;;;536.75;344.70;;;;;;;;;;4983257;28;20091;-79
2021/05/31 02:57:45;;;;;;;559.35;356.00;;;;;;;;;;4981988;28;20027;-78
2021/05/31 03:00:13;;;;;;;538.33;340.90;;;;;;;;;;4985273;28;20052;-79
2021/05/31 03:02:39;;;;;;;557.13;350.48;;;;;;;;;;4983455;28;20019;-81
2021/05/31 03:05:06;;;;;;;567.95;368.65;;;;;;;;;;4982277;28;20052;-76
2021/05/31 03:07:32;;;;;;;541.63;349.20;;;;;;;;;;4980866;28;20129;-77
2021/05/31 03:09:58;;;;;;;534.53;342.55;;;;;;;;;;4982156;28;20110;-75
2021/05/31 03:12:24;;;;;;;522.28;336.60;;;;;;;;;;4984404;28;20022;-77
2021/05/31 03:14:51;;;;;;;526.33;336.70;;;;;;;;;;4985773;28;20030;-76
2021/05/31 03:17:21;;;;;;;534.80;345.95;;;;;;;;;;4980432;28;20030;-77
2021/05/31 03:19:47;;;;;;;528.28;328.70;;;;;;;;;;4980817;28;20019;-78
2021/05/31 03:22:13;;;;;;;543.45;342.17;;;;;;;;;;4982603;28;20033;-77
2021/05/31 03:24:39;;;;;;;530.70;334.05;;;;;;;;;;4979191;28;20624;-75
2021/05/31 03:27:05;;;;;;;512.53;322.85;;;;;;;;;;4985256;28;20030;-76
2021/05/31 03:29:31;;;;;;;516.53;327.75;;;;;;;;;;4984702;28;20018;-79
2021/05/31 03:31:58;;;;;;;499.90;316.25;;;;;;;;;;4982793;28;20130;-78
2021/05/31 03:34:24;;;;;;;509.88;320.23;;;;;;;;;;4981894;28;20018;-78
2021/05/31 03:36:50;;;;;;;509.05;324.23;;;;;;;;;;4985257;28;20054;-78
2021/05/31 03:39:16;;;;;;;508.50;325.40;;;;;;;;;;4983867;28;20030;-78
2021/05/31 03:41:42;;;;;;;507.88;321.77;;;;;;;;;;4981874;28;20041;-78
2021/05/31 03:44:09;;;;;;;512.65;329.98;;;;;;;;;;4980252;28;20045;-77
2021/05/31 03:46:35;;;;;;;510.08;329.13;;;;;;;;;;4980613;28;20026;-77
2021/05/31 03:49:01;;;;;;;504.30;318.05;;;;;;;;;;4976951;28;20031;-77
2021/05/31 03:51:27;;;;;;;510.80;325.05;;;;;;;;;;4980125;28;20029;-80
2021/05/31 03:53:53;;;;;;;508.95;323.73;;;;;;;;;;4980471;28;20441;-75
2021/05/31 03:56:19;;;;;;;505.50;321.50;;;;;;;;;;4984075;28;20019;-77
2021/05/31 03:58:46;;;;;;;503.05;322.05;;;;;;;;;;4981350;28;20091;-78
2021/05/31 04:01:13;;;;;;;504.23;322.58;;;;;;;;;;4983596;28;20415;-78
2021/05/31 04:03:40;;;;;;;498.02;312.88;;;;;;;;;;4981806;28;20015;-79
2021/05/31 04:11:36;;;;;;;508.90;322.90;;;;;;;;;;4982332;28;20647;-78
2021/05/31 04:14:06;;;;;;;507.13;321.98;;;;;;;;;;4981004;28;20070;-79
2021/05/31 04:16:32;;;;;;;498.27;313.58;;;;;;;;;;4987192;28;20083;-78
2021/05/31 04:18:59;;;;;;;497.13;315.48;;;;;;;;;;5003576;28;20087;-77
2021/05/31 04:21:26;;;;;;;508.30;328.20;;;;;;;;;;4998080;28;20067;-79
2021/05/31 04:23:53;;;;;;;514.47;330.70;;;;;;;;;;5000030;28;20038;-77
2021/05/31 04:26:19;;;;;;;502.08;326.45;;;;;;;;;;5000323;28;20026;-79
2021/05/31 04:28:45;;;;;;;498.58;318.70;;;;;;;;;;4999347;28;20331;-77
2021/05/31 04:31:11;;;;;;;500.52;319.60;;;;;;;;;;5003043;28;20022;-77
2021/05/31 04:33:37;;;;;;;498.20;324.02;;;;;;;;;;5001238;28;20102;-79
2021/05/31 04:36:03;;;;;;;493.10;318.98;;;;;;;;;;4986447;28;20018;-79
2021/05/31 04:38:29;;;;;;;497.40;328.70;;;;;;;;;;4986506;28;20428;-78
2021/05/31 04:40:55;;;;;;;495.30;321.63;;;;;;;;;;4984313;28;20051;-78
2021/05/31 04:43:21;;;;;;;496.30;322.35;;;;;;;;;;4984048;28;20382;-78
2021/05/31 04:45:48;;;;;;;503.00;327.50;;;;;;;;;;4984973;28;20367;-77
2021/05/31 04:48:14;;;;;;;503.20;327.92;;;;;;;;;;4983851;28;20044;-78
2021/05/31 04:50:40;;;;;;;495.00;323.50;;;;;;;;;;4982365;28;20042;-78
2021/05/31 04:53:06;;;;;;;505.20;330.50;;;;;;;;;;4987431;28;20060;-78
2021/05/31 04:55:33;;;;;;;490.83;317.48;;;;;;;;;;4985951;28;20026;-77
2021/05/31 04:57:59;;;;;;;509.65;338.35;;;;;;;;;;4985544;28;20112;-79
2021/05/31 05:00:25;;;;;;;501.60;328.08;;;;;;;;;;5000043;28;20336;-78
2021/05/31 05:02:51;;;;;;;514.88;332.58;;;;;;;;;;4989732;28;20026;-79
2021/05/31 05:05:17;;;;;;;510.83;326.42;;;;;;;;;;5005768;28;20086;-77
2021/05/31 05:07:46;;;;;;;494.75;325.08;;;;;;;;;;4994565;28;20022;-77
2021/05/31 05:10:13;;;;;;;504.75;327.02;;;;;;;;;;4979603;28;20399;-78
2021/05/31 05:12:39;;;;;;;506.33;327.48;;;;;;;;;;5005115;28;20389;-78
2021/05/31 05:15:06;;;;;;;513.63;339.67;;;;;;;;;;4983372;28;20047;-77
2021/05/31 05:17:32;;;;;;;506.90;329.75;;;;;;;;;;4997896;28;20078;-78
2021/05/31 05:19:58;;;;;;;498.95;338.05;;;;;;;;;;4999349;28;20045;-79
2021/05/31 05:22:23;;;;;;;503.25;336.75;;;;;;;;;;4979117;28;20023;-78
2021/05/31 05:24:49;;;;;;;504.42;336.45;;;;;;;;;;5002178;28;20114;-79
2021/05/31 05:27:15;;;;;;;509.70;340.90;;;;;;;;;;4986901;28;20034;-79
2021/05/31 05:29:41;;;;;;;502.15;337.63;;;;;;;;;;4986758;28;20123;-79
2021/05/31 05:32:09;;;;;;;496.30;332.58;;;;;;;;;;5001834;28;20140;-78
2021/05/31 05:34:35;;;;;;;500.30;343.80;;;;;;;;;;4981861;28;20037;-78
2021/05/31 05:37:14;;;;;;;496.65;336.15;;;;;;;;;;4994109;28;20026;-77
2021/05/31 05:47:49;;;;;;;494.92;341.30;;;;;;;;;;4997191;28;20043;-79
2021/05/31 05:50:19;;;;;;;491.67;338.92;;;;;;;;;;4983200;28;20377;-78
2021/05/31 05:52:48;;;;;;;494.00;349.63;;;;;;;;;;4980734;28;20121;-78
2021/05/31 05:55:14;;;;;;;486.33;334.00;;;;;;;;;;4999586;28;20054;-79
2021/05/31 05:57:41;;;;;;;494.25;346.75;;;;;;;;;;4979155;28;21521;-79
2021/05/31 06:00:13;;;;;;;493.77;344.10;;;;;;;;;;5003616;28;20336;-77
2021/05/31 06:02:39;;;;;;;496.90;351.98;;;;;;;;;;4988095;28;20532;-80
2021/05/31 06:05:06;;;;;;;498.95;354.67;;;;;;;;;;4977265;28;20087;-77
2021/05/31 06:07:32;;;;;;;495.58;357.63;;;;;;;;;;4979202;28;20105;-79
2021/05/31 06:10:00;;;;;;;495.85;356.83;;;;;;;;;;5000570;28;20054;-79
2021/05/31 06:12:26;;;;;;;494.08;352.73;;;;;;;;;;4984365;28;20055;-79
2021/05/31 06:14:52;;;;;;;490.48;350.58;;;;;;;;;;4980704;28;20042;-78
2021/05/31 06:17:17;;;;;;;500.50;363.52;;;;;;;;;;5000575;28;20336;-80
2021/05/31 06:19:43;;;;;;;486.48;348.38;;;;;;;;;;4977655;28;20018;-78
2021/05/31 06:22:09;;;;;;;492.83;359.20;;;;;;;;;;4989689;28;20448;-79
2021/05/31 06:24:35;;;;;;;499.55;367.80;;;;;;;;;;4998528;28;20037;-79
2021/05/31 06:27:01;;;;;;;487.92;357.83;;;;;;;;;;4983431;28;20022;-79
2021/05/31 06:29:27;;;;;;;495.52;363.60;;;;;;;;;;4977932;28;20121;-79
2021/05/31 06:31:54;;;;;;;491.25;365.10;;;;;;;;;;4980798;28;20110;-79
2021/05/31 06:34:20;;;;;;;489.15;361.80;;;;;;;;;;4975872;28;20034;-76
2021/05/31 06:36:48;;;;;;;484.67;354.33;;;;;;;;;;4980186;28;20018;-77
2021/05/31 06:39:14;;;;;;;491.00;359.67;;;;;;;;;;4988048;28;20373;-77
2021/05/31 06:41:40;;;;;;;491.48;360.30;;;;;;;;;;4980636;28;20018;-78
2021/05/31 06:44:08;;;;;;;488.77;363.92;;;;;;;;;;4982506;28;20039;-79
2021/05/31 06:46:34;;;;;;;502.10;372.52;;;;;;;;;;4985353;28;20040;-77
2021/05/31 06:49:00;;;;;;;489.10;357.50;;;;;;;;;;4996192;28;20017;-79
2021/05/31 06:51:27;;;;;;;496.40;362.50;;;;;;;;;;4985166;28;20026;-80
2021/05/31 06:53:53;;;;;;;491.77;359.25;;;;;;;;;;4981369;28;20022;-78
2021/05/31 06:56:23;;;;;;;559.75;402.20;;;;;;;;;;4978885;28;20079;-79
2021/05/31 06:58:50;;;;;;;497.38;362.60;;;;;;;;;;4981854;28;20026;-79
2021/05/31 07:01:17;;;;;;;497.63;361.30;;;;;;;;;;4980307;28;20030;-79
2021/05/31 07:03:43;;;;;;;498.73;367.40;;;;;;;;;;4978497;28;20496;-78
2021/05/31 07:06:09;;;;;;;507.10;378.08;;;;;;;;;;4979639;28;20029;-77
2021/05/31 07:08:35;;;;;;;497.90;370.13;;;;;;;;;;4976793;28;20026;-78
2021/05/31 07:11:07;;;;;;;497.10;368.38;;;;;;;;;;4982775;28;20022;-77
2021/05/31 07:13:33;;;;;;;511.27;381.75;;;;;;;;;;4982422;28;20022;-78
2021/05/31 07:15:58;;;;;;;497.38;370.13;;;;;;;;;;4994234;28;20121;-77
2021/05/31 07:18:25;;;;;;;493.00;370.48;;;;;;;;;;4983897;28;20031;-80
2021/05/31 07:20:52;;;;;;;493.02;368.45;;;;;;;;;;4982688;28;20018;-79
2021/05/31 07:23:18;;;;;;;491.70;369.05;;;;;;;;;;5000151;28;20082;-78
2021/05/31 07:25:45;;;;;;;491.05;372.95;;;;;;;;;;4981312;28;20030;-79
2021/05/31 07:28:11;;;;;;;492.05;376.75;;;;;;;;;;4985803;28;20117;-76
2021/05/31 07:30:38;;;;;;;498.08;383.65;;;;;;;;;;4974834;28;20220;-78
2021/05/31 07:33:04;;;;;;;497.92;381.52;;;;;;;;;;4984292;28;20032;-79
2021/05/31 07:35:30;;;;;;;499.17;390.73;;;;;;;;;;4976926;28;20105;-78
2021/05/31 07:37:56;;;;;;;499.30;385.73;;;;;;;;;;4980722;28;20021;-80
2021/05/31 07:40:23;;;;;;;498.42;388.77;;;;;;;;;;4982038;28;20068;-78
2021/05/31 07:42:49;;;;;;;497.65;386.95;;;;;;;;;;4982217;28;20010;-79
2021/05/31 07:45:20;;;;;;;498.98;390.30;;;;;;;;;;4997585;28;20317;-79
2021/05/31 07:47:47;;;;;;;499.33;392.55;;;;;;;;;;4992753;28;20055;-78
2021/05/31 07:50:14;;;;;;;503.25;393.05;;;;;;;;;;4981754;28;20029;-78
2021/05/31 07:52:40;;;;;;;523.22;404.70;;;;;;;;;;4996288;28;20014;-77
2021/05/31 07:55:11;;;;;;;511.48;407.75;;;;;;;;;;4983810;28;20113;-78
2021/05/31 07:57:37;;;;;;;503.88;391.90;;;;;;;;;;4978997;28;20101;-79
2021/05/31 08:00:04;;;;;;;513.28;408.90;;;;;;;;;;4994923;28;20031;-77
2021/05/31 08:02:30;;;;;;;500.92;398.77;;;;;;;;;;4975174;28;20014;-78
2021/05/31 08:04:56;;;;;;;501.95;396.00;;;;;;;;;;4981941;28;20699;-77
2021/05/31 08:07:22;;;;;;;499.70;402.10;;;;;;;;;;4997949;28;20034;-78
2021/05/31 08:09:48;;;;;;;499.15;405.60;;;;;;;;;;4992440;28;20023;-77
2021/05/31 08:12:15;;;;;;;494.55;399.00;;;;;;;;;;4981297;28;20014;-78
2021/05/31 08:14:41;;;;;;;497.08;404.05;;;;;;;;;;4978715;28;20745;-77
2021/05/31 08:17:07;;;;;;;499.90;410.23;;;;;;;;;;4982393;28;20025;-77
2021/05/31 08:19:33;;;;;;;498.70;406.80;;;;;;;;;;4980973;28;20030;-78
2021/05/31 08:22:00;;;;;;;503.63;415.77;;;;;;;;;;4997531;28;20361;-77
2021/05/31 08:24:26;;;;;;;506.83;421.33;;;;;;;;;;4978163;28;20187;-77
2021/05/31 08:26:52;;;;;;;509.77;422.75;;;;;;;;;;4973764;28;20023;-78
2021/05/31 08:29:19;;;;;;;508.33;424.77;;;;;;;;;;4982068;28;20060;-78
2021/05/31 08:31:45;;;;;;;528.72;436.67;;;;;;;;;;4992749;28;20019;-78
2021/05/31 08:34:12;;;;;;;517.40;428.42;;;;;;;;;;4981481;28;20371;-77
2021/05/31 08:36:38;;;;;;;512.72;427.88;;;;;;;;;;4978097;28;20379;-78
2021/05/31 08:39:04;;;;;;;513.38;428.52;;;;;;;;;;4982850;28;20091;-77
2021/05/31 08:41:30;;;;;;;511.83;432.40;;;;;;;;;;5002950;28;20022;-78
2021/05/31 08:43:57;;;;;;;505.98;424.73;;;;;;;;;;5005342;28;20022;-80
2021/05/31 08:46:23;;;;;;;514.75;428.95;;;;;;;;;;5023547;28;20033;-78
2021/05/31 08:48:49;;;;;;;505.02;432.05;;;;;;;;;;4977465;28;20022;-79
2021/05/31 08:51:17;;;;;;;503.38;431.38;;;;;;;;;;4978913;28;20435;-78
2021/05/31 08:53:44;;;;;;;507.63;442.50;;;;;;;;;;4998870;28;20037;-78
2021/05/31 08:56:10;;;;;;;511.70;454.08;;;;;;;;;;4984382;28;20024;-74
2021/05/31 08:58:36;;;;;;;525.33;468.08;;;;;;;;;;4986073;28;20018;-76
2021/05/31 09:01:03;;;;;;;549.35;491.63;;;;;;;;;;4996989;28;20038;-76
2021/05/31 09:03:29;;;;;;;551.55;494.42;;;;;;;;;;4987374;28;20018;-76
2021/05/31 09:05:59;;;;;;;568.45;510.75;;;;;;;;;;4998886;28;20414;-75
2021/05/31 09:08:25;;;;;;;581.83;523.47;;;;;;;;;;4992717;28;20145;-77
2021/05/31 09:10:55;;;;;;;607.53;547.55;;;;;;;;;;5001977;28;20144;-77
2021/05/31 09:13:39;;;;;;;599.88;541.38;;;;;;;;;;4978237;28;20113;-76
2021/05/31 09:16:08;;;;;;;615.25;555.83;;;;;;;;;;4999628;28;20046;-76
2021/05/31 09:18:35;;;;;;;601.00;542.88;;;;;;;;;;4987642;28;20448;-76
2021/05/31 09:21:15;;;;;;;619.33;560.55;;;;;;;;;;4982092;28;20063;-75
2021/05/31 09:23:41;;;;;;;622.28;563.55;;;;;;;;;;4980391;28;20117;-77
2021/05/31 09:26:08;;;;;;;638.38;579.13;;;;;;;;;;4980428;28;20137;-77
2021/05/31 09:28:34;;;;;;;643.72;584.42;;;;;;;;;;4988216;28;20022;-77
2021/05/31 09:31:00;;;;;;;633.95;575.50;;;;;;;;;;4988814;28;20014;-76
2021/05/31 09:33:26;;;;;;;641.10;582.53;;;;;;;;;;4999736;28;20021;-76
2021/05/31 09:35:53;;;;;;;642.13;583.83;;;;;;;;;;4995862;28;20030;-76
2021/05/31 09:38:19;;;;;;;642.67;584.45;;;;;;;;;;5000833;28;20030;-77
2021/05/31 09:40:55;;;;;;;652.97;594.17;;;;;;;;;;4989089;28;20026;-78
2021/05/31 09:43:29;;;;;;;662.35;603.47;;;;;;;;;;4984660;28;20621;-79
2021/05/31 09:45:55;;;;;;;664.45;605.78;;;;;;;;;;4999423;28;20030;-76
2021/05/31 09:48:21;;;;;;;681.65;622.55;;;;;;;;;;4980522;28;20344;-76
2021/05/31 09:51:01;;;;;;;695.47;635.78;;;;;;;;;;4978776;28;20164;-77
2021/05/31 09:53:36;;;;;;;702.45;642.40;;;;;;;;;;4984996;28;20098;-76
2021/05/31 09:56:15;;;;;;;729.22;667.75;;;;;;;;;;4980409;28;20520;-78
2021/05/31 09:58:50;;;;;;;742.22;679.80;;;;;;;;;;4988212;28;20113;-78
2021/05/31 10:01:32;;;;;;;734.33;672.80;;;;;;;;;;4982668;28;20857;-77
2021/05/31 10:04:18;;;;;;;736.22;674.65;;;;;;;;;;4985392;28;20030;-77
2021/05/31 10:09:19;;;;;;;760.30;698.05;;;;;;;;;;4998595;28;20034;-77
2021/05/31 10:11:46;;;;;;;742.17;680.83;;;;;;;;;;4981214;28;20340;-78
2021/05/31 10:14:15;;;;;;;762.72;700.53;;;;;;;;;;4978120;28;20022;-78
2021/05/31 10:16:41;;;;;;;;;;;;;;;;;;4993155;28;22172;-78
2021/05/31 10:19:08;;;;;;;760.42;698.53;;;;;;;;;;4988777;28;19924;-78
2021/05/31 10:21:35;;;;;;;774.25;712.28;;;;;;;;;;4986811;28;20111;-77
2021/05/31 10:24:02;;;;;;;777.95;716.13;;;;;;;;;;4976851;28;20022;-77
2021/05/31 10:26:31;;;;;;;787.80;724.88;;;;;;;;;;4988310;28;20026;-79
2021/05/31 10:28:58;;;;;;;768.03;706.13;;;;;;;;;;4989550;28;20030;-77
2021/05/31 10:31:27;;;;;;;820.45;756.35;;;;;;;;;;4998889;28;20694;-78
2021/05/31 10:34:00;;;;;;;809.35;746.13;;;;;;;;;;5001569;28;20036;-79
2021/05/31 10:36:31;;;;;;;841.53;775.63;;;;;;;;;;4994026;28;20022;-80
2021/05/31 10:39:01;;;;;;;905.60;835.75;;;;;;;;;;4990992;28;20148;-78
2021/05/31 10:41:27;;;;;;;826.83;761.60;;;;;;;;;;4967160;28;20114;-77
2021/05/31 10:43:54;;;;;;;802.83;739.03;;;;;;;;;;4964140;28;20037;-78
2021/05/31 10:46:22;;;;;;;811.80;746.92;;;;;;;;;;4990505;28;20524;-81
2021/05/31 10:48:52;;;;;;;905.85;834.30;;;;;;;;;;4971179;28;20069;-80
2021/05/31 10:51:18;;;;;;;;;;;;;;;;;;4968022;28;20042;-80
2021/05/31 10:53:44;;;;;;;896.80;824.78;;;;;;;;;;4965840;28;19910;-79
2021/05/31 10:56:11;;;;;;;1053.78;970.08;;;;;;;;;;4968028;28;20034;-78
2021/05/31 10:58:44;;;;;;;1067.28;982.08;;;;;;;;;;4984099;28;20093;-80
2021/05/31 11:01:13;;;;;;;1021.15;938.97;;;;;;;;;;4980795;28;20631;-79
2021/05/31 11:04:07;;;;;;;895.30;821.17;;;;;;;;;;4994855;28;20088;-78
2021/05/31 11:06:43;;;;;;;867.63;793.75;;;;;;;;;;4988822;28;20121;-80
2021/05/31 11:09:12;;;;;;;843.40;770.30;;;;;;;;;;4979381;28;20604;-79
2021/05/31 11:11:37;;;;;;;706.60;642.77;;;;;;;;;;4991940;28;20343;-79
2021/05/31 11:14:04;;;;;;;685.70;623.42;;;;;;;;;;4978868;28;20022;-79
2021/05/31 11:16:33;;;;;;;677.92;616.25;;;;;;;;;;4982818;28;20620;-80
2021/05/31 11:19:00;;;;;;;669.17;608.15;;;;;;;;;;4981465;28;20027;-77
2021/05/31 11:21:26;;;;;;;687.65;625.53;;;;;;;;;;4997947;28;20019;-79
2021/05/31 11:23:56;;;;;;;679.33;617.50;;;;;;;;;;4985702;28;20340;-82
2021/05/31 11:26:22;;;;;;;685.35;622.97;;;;;;;;;;4997259;28;20022;-78
2021/05/31 11:28:49;;;;;;;680.38;619.08;;;;;;;;;;4999142;28;20048;-79
2021/05/31 11:31:14;;;;;;;690.13;628.15;;;;;;;;;;5019211;28;20038;-79
2021/05/31 11:33:41;;;;;;;717.83;653.80;;;;;;;;;;4984650;28;20087;-78
2021/05/31 11:36:10;;;;;;;770.03;701.78;;;;;;;;;;4987282;28;20018;-78
2021/05/31 11:38:36;;;;;;;;;;;;;;;;;;4983875;28;20030;-80
2021/05/31 11:41:08;;;;;;;696.03;632.03;;;;;;;;;;4976857;28;19918;-80
2021/05/31 11:43:34;;;;;;;840.50;767.25;;;;;;;;;;4981077;28;20010;-78
2021/05/31 11:46:00;;;;;;;668.60;606.95;;;;;;;;;;4986848;28;20481;-78
2021/05/31 11:48:28;;;;;;;742.67;675.15;;;;;;;;;;4978196;28;20340;-81
2021/05/31 11:50:54;;;;;;;797.55;725.28;;;;;;;;;;4982576;28;20014;-80
2021/05/31 11:53:20;;;;;;;695.22;631.60;;;;;;;;;;4996256;28;20026;-80
2021/05/31 11:55:47;;;;;;;769.38;701.10;;;;;;;;;;4973694;28;20026;-80
2021/05/31 11:58:13;;;;;;;745.72;680.03;;;;;;;;;;4992927;28;20018;-78
2021/05/31 12:00:42;;;;;;;699.95;637.83;;;;;;;;;;4979450;28;20058;-79
2021/05/31 12:03:15;;;;;;;694.97;633.72;;;;;;;;;;5004588;28;20022;-81
2021/05/31 12:05:41;;;;;;;718.38;656.08;;;;;;;;;;5016545;28;20034;-83
2021/05/31 12:08:10;;;;;;;751.70;687.97;;;;;;;;;;5001949;28;20022;-77
2021/05/31 12:10:37;;;;;;;729.70;667.53;;;;;;;;;;4985145;28;20030;-77
2021/05/31 12:13:03;;;;;;;750.90;688.35;;;;;;;;;;5002972;28;20422;-79
2021/05/31 12:15:29;;;;;;;726.50;665.53;;;;;;;;;;4995712;28;20310;-77
2021/05/31 12:17:56;;;;;;;757.15;694.17;;;;;;;;;;4983885;28;20167;-79
2021/05/31 12:20:30;;;;;;;740.42;679.08;;;;;;;;;;5002217;28;20037;-80
2021/05/31 12:22:56;;;;;;;749.75;688.10;;;;;;;;;;4985153;28;20490;-78
2021/05/31 12:25:22;;;;;;;777.05;714.03;;;;;;;;;;4983650;28;20026;-78
2021/05/31 12:27:48;;;;;;;748.78;687.10;;;;;;;;;;4992083;28;20467;-77
2021/05/31 12:30:16;;;;;;;743.33;681.83;;;;;;;;;;4994560;28;20027;-77
2021/05/31 12:32:42;;;;;;;757.28;694.95;;;;;;;;;;4988426;28;20018;-80
2021/05/31 12:35:09;;;;;;;753.55;691.58;;;;;;;;;;4987232;28;20018;-78
2021/05/31 12:37:36;;;;;;;750.45;688.67;;;;;;;;;;4976470;28;20448;-81
2021/05/31 12:40:08;;;;;;;754.35;692.40;;;;;;;;;;4979173;28;20345;-78
2021/05/31 12:42:34;;;;;;;773.63;710.45;;;;;;;;;;4982278;28;20441;-81
2021/05/31 12:45:19;;;;;;;745.80;684.08;;;;;;;;;;4994283;28;20037;-79
2021/05/31 12:47:49;;;;;;;742.30;681.05;;;;;;;;;;4985532;28;20063;-79
2021/05/31 12:50:26;;;;;;;758.55;696.47;;;;;;;;;;4982271;28;20023;-79
2021/05/31 12:52:52;;;;;;;745.38;683.85;;;;;;;;;;4986195;28;20119;-78
2021/05/31 12:55:27;;;;;;;743.95;682.33;;;;;;;;;;4986056;28;20063;-78
2021/05/31 12:57:55;;;;;;;742.92;681.08;;;;;;;;;;4983420;28;20026;-78
2021/05/31 13:00:23;;;;;;;727.58;666.80;;;;;;;;;;5003097;28;20475;-81
2021/05/31 13:02:51;;;;;;;722.60;661.92;;;;;;;;;;4988183;28;20033;-80
2021/05/31 13:05:18;;;;;;;730.10;669.05;;;;;;;;;;4988525;28;20041;-80
2021/05/31 13:07:49;;;;;;;745.00;683.03;;;;;;;;;;5014372;28;20101;-78
2021/05/31 13:10:20;;;;;;;732.10;670.97;;;;;;;;;;5002118;28;20331;-78
2021/05/31 13:12:59;;;;;;;751.95;689.60;;;;;;;;;;4981507;28;20482;-79
2021/05/31 13:15:35;;;;;;;724.30;663.67;;;;;;;;;;4988465;28;20037;-78
2021/05/31 13:18:15;;;;;;;743.42;682.03;;;;;;;;;;4999400;28;20076;-79
2021/05/31 13:20:41;;;;;;;742.88;680.95;;;;;;;;;;5001585;28;20109;-79
2021/05/31 13:23:12;;;;;;;749.97;687.28;;;;;;;;;;4989095;28;20109;-79
2021/05/31 13:25:38;;;;;;;732.20;670.42;;;;;;;;;;4987883;28;20121;-78
2021/05/31 13:28:10;;;;;;;751.40;688.58;;;;;;;;;;4980813;28;20064;-77
2021/05/31 13:30:37;;;;;;;749.13;686.45;;;;;;;;;;4983575;28;20101;-79
2021/05/31 13:33:03;;;;;;;751.92;688.63;;;;;;;;;;4992023;28;20498;-78
2021/05/31 13:35:29;;;;;;;760.92;697.15;;;;;;;;;;4976833;28;20026;-79
2021/05/31 13:37:57;;;;;;;728.08;666.08;;;;;;;;;;4984597;28;20086;-78
2021/05/31 13:40:37;;;;;;;727.15;665.10;;;;;;;;;;4998645;28;20015;-79
2021/05/31 13:43:08;;;;;;;717.50;655.72;;;;;;;;;;4996964;28;20106;-79
2021/05/31 13:45:39;;;;;;;714.45;652.30;;;;;;;;;;4977115;28;20034;-80
2021/05/31 13:48:07;;;;;;;707.63;645.63;;;;;;;;;;4975712;28;20353;-80
2021/05/31 13:50:34;;;;;;;707.75;646.20;;;;;;;;;;5014142;28;20038;-80
2021/05/31 13:53:13;;;;;;;709.15;646.95;;;;;;;;;;4978382;28;20456;-83
2021/05/31 13:55:39;;;;;;;691.10;630.20;;;;;;;;;;5007381;28;20037;-82
2021/05/31 13:58:06;;;;;;;705.65;643.78;;;;;;;;;;4980110;28;20432;-80
2021/05/31 14:00:32;;;;;;;724.15;661.22;;;;;;;;;;4982342;28;20101;-80
2021/05/31 14:02:59;;;;;;;706.15;643.72;;;;;;;;;;4982171;28;20035;-81
2021/05/31 14:05:29;;;;;;;702.42;640.63;;;;;;;;;;4983511;28;20119;-80
2021/05/31 14:07:55;;;;;;;720.45;656.88;;;;;;;;;;4979219;28;20305;-79
2021/05/31 14:10:22;;;;;;;702.17;639.65;;;;;;;;;;4983964;28;20455;-79
2021/05/31 14:12:48;;;;;;;692.70;631.08;;;;;;;;;;4978148;28;20018;-80
2021/05/31 14:15:15;;;;;;;683.70;622.38;;;;;;;;;;4983287;28;20061;-79